Colfax, CA

6:45 PM PDT on September 21, 2014 (GMT -0700)
HADS BEAR RIVER AT ROLLINS RESERVOIR CA US | Change Station
CLOSE
Current Station
Personal Weather Station
Location: Chicago Park, CA
Elevation: 1943 ft
Nearby Weather Stations

Elev 1943 ft 39.14 °N, 120.95 °W | Updated 1 hour ago

Mostly Cloudy
Mostly Cloudy
74 °F
Feels Like 72 °F
N
Wind Variable Wind from North
Gusts 0.0 mph

Today
High -- | Low -- °F
--% Chance of Precip.
Yesterday
High -- | Low -- °F
Precip. -- in
6:50 AM 7:02 PM
Waning Crescent, 4% visible
Pressure 30.05 in
Visibility 1.5 miles
Clouds Scattered Clouds 800 ft
Overcast 1100 ft
Heat Index 72 °F
Dew Point Not available.
Humidity Not available.
Rainfall 0.00 in
Snow Depth 0 in , 0 in , 0 in
UV 0 out of 12
Pollen 5.20 out of 12
Ozone Good
Flu Activity Not available.
METAR KGOO 220140Z AUTO 00000KT 1 1/2SM SCT008 OVC011 21/10 A3005 RMK AO1

More Conditions Fewer Conditions

Pressure 30.05 in
Visibility 1.5 miles
Clouds Scattered Clouds 800 ft
Overcast 1100 ft
Heat Index 72 °F
Dew Point Not available.
Humidity Not available.
Rainfall 0.00 in
Snow Depth 0 in , 0 in , 0 in
UV 0 out of 12
Pollen 5.20 out of 12
Ozone Good
Flu Activity Not available.
METAR KGOO 220140Z AUTO 00000KT 1 1/2SM SCT008 OVC011 21/10 A3005 RMK AO1

More Conditions Fewer Conditions

10-Day Weather Forecast

Almanac

Astronomy

Sep. 21, 2014 Rise Set
Actual Time 6:50 AM PDT 7:02 PM PDT
Civil Twilight 6:23 AM PDT 7:28 PM PDT
Nautical Twilight 5:52 AM PDT 8:00 PM PDT
Astronomical Twilight 5:20 AM PDT 8:31 PM PDT
Moon 4:29 AM PDT (9/21) 5:40 PM PDT (9/21)
Length of Visible Light 13h 05m
Length of Day
12h 11m
Tomorrow will be 2m 32s shorter.
Waning Crescent, 4% of the Moon is Illuminated
Today
Waning Crescent
Sep 24
New
Oct 1
First Quarter
Oct 8
Full
Oct 15
Last Quarter

Today's Extremes

State Highs State Lows

Community

WunderPhotos

Upload Photos

1,755,347 photos uploaded!

WunderBlogs® & News

Nearby

Air Quality

  Air Quality AQ Index Pollutant
Yesterday Unhealthy
PM2.5
Yesterday Good
OZONE
Current Good
OZONE

Snow Depth

Station Depth Elevation
Echo Peak 0 in 7800 ft
Burnside Lake 0 in 8139 ft
Adin Mountain 0 in 6200 ft
Leavitt Lake 0 in 9400 ft
Summit Meadow 0 in 9122 ft

Earthquake Activity

City Distance Mag. Time & Date
Sonoma, California 95 miles 2.7 1:17 PM PDT
2014-09-21
Cloverdale, California 105 miles 2.5 9:15 PM PDT
2014-09-20
Livermore, California 108 miles 2.6 3:37 AM PDT
2014-09-19
The Geysers, California 98 miles 2.5 11:29 PM PDT
2014-09-17
Minimum magnitude displayed is 2.5.

Coastal Water Temperatures

Place Temperature
No Stations Reporting

Nearby Weather Stations